createdAt,value
2022-08-07T00:00:31.705Z,1.41
2022-08-07T00:03:00.600Z,1.64
2022-08-07T00:05:31.216Z,1.72
2022-08-07T00:08:02.055Z,2.14
2022-08-07T00:10:31.001Z,2.11
2022-08-07T00:13:09.591Z,1.68
2022-08-07T00:15:46.716Z,2.18
2022-08-07T00:18:23.881Z,1.88
2022-08-07T00:20:54.565Z,1.47
2022-08-07T00:23:22.741Z,1.45
2022-08-07T00:25:58.944Z,1.93
2022-08-07T00:28:33.262Z,2.10
2022-08-07T00:31:12.244Z,1.73
2022-08-07T00:33:47.475Z,1.70
2022-08-07T00:38:50.739Z,1.71
2022-08-07T00:41:27.883Z,2.25
2022-08-07T00:44:01.649Z,1.58
2022-08-07T00:46:31.036Z,2.05
2022-08-07T00:49:03.702Z,1.78
2022-08-07T00:51:57.112Z,1.73
2022-08-07T00:54:19.935Z,1.41
2022-08-07T00:56:49.625Z,2.01
2022-08-07T00:59:32.321Z,2.24
2022-08-07T01:02:06.297Z,2.79
2022-08-07T01:04:43.240Z,2.39
2022-08-07T01:07:11.446Z,2.39
2022-08-07T01:10:07.211Z,2.61
2022-08-07T01:12:31.026Z,2.21
2022-08-07T01:15:03.660Z,2.06
2022-08-07T01:17:45.752Z,1.83
2022-08-07T01:20:17.470Z,1.31
2022-08-07T01:23:00.846Z,1.08
2022-08-07T01:25:54.613Z,1.37
2022-08-07T01:28:25.199Z,1.34
2022-08-07T01:30:57.456Z,0.99
2022-08-07T01:33:30.143Z,1.12
2022-08-07T01:36:16.790Z,1.55
2022-08-07T01:38:45.862Z,1.34
2022-08-07T01:41:25.884Z,1.60
2022-08-07T01:43:53.957Z,1.70
2022-08-07T01:46:27.498Z,1.86
2022-08-07T01:48:54.912Z,1.93
2022-08-07T01:52:03.732Z,1.52
2022-08-07T01:54:32.629Z,1.82
2022-08-07T01:57:08.378Z,1.91
2022-08-07T01:59:43.776Z,2.14
2022-08-07T02:02:32.642Z,2.31
2022-08-07T02:05:09.115Z,2.17
2022-08-07T02:07:52.218Z,2.11
2022-08-07T02:10:24.827Z,2.11
2022-08-07T02:12:53.999Z,1.82
2022-08-07T02:15:25.425Z,1.90
2022-08-07T02:17:57.763Z,1.47
2022-08-07T02:20:30.643Z,1.90
2022-08-07T02:23:03.189Z,1.93
2022-08-07T02:26:31.202Z,1.52
2022-08-07T02:28:29.426Z,1.45
2022-08-07T02:30:59.046Z,1.30
2022-08-07T02:33:42.027Z,1.42
2022-08-07T02:36:30.619Z,1.45
2022-08-07T02:39:16.732Z,1.34
2022-08-07T02:41:56.466Z,1.81
2022-08-07T02:44:34.402Z,2.49
2022-08-07T02:47:05.943Z,1.95
2022-08-07T02:49:58.754Z,2.13
2022-08-07T02:52:31.185Z,2.59
2022-08-07T02:55:03.727Z,2.47
2022-08-07T02:57:37.322Z,1.98
2022-08-07T03:00:11.049Z,1.41
2022-08-07T03:05:24.468Z,1.42
2022-08-07T03:08:07.085Z,1.39
2022-08-07T03:10:46.520Z,1.19
2022-08-07T03:13:19.424Z,1.60
2022-08-07T03:15:56.463Z,1.48
2022-08-07T03:18:34.626Z,1.36
2022-08-07T03:21:08.428Z,2.10
2022-08-07T03:26:50.971Z,2.05
2022-08-07T03:29:25.176Z,1.64
2022-08-07T03:32:02.576Z,2.63
2022-08-07T03:34:47.419Z,2.54
2022-08-07T03:37:32.497Z,1.79
2022-08-07T03:40:16.144Z,1.73
2022-08-07T03:42:47.140Z,1.76
2022-08-07T03:45:30.656Z,1.70
2022-08-07T03:48:00.961Z,1.50
2022-08-07T03:50:30.017Z,1.76
2022-08-07T03:52:59.276Z,1.34
2022-08-07T03:55:57.708Z,1.53
2022-08-07T03:59:05.419Z,2.65
2022-08-07T04:01:13.836Z,2.34
2022-08-07T04:03:53.342Z,1.75
2022-08-07T04:06:37.886Z,1.70
2022-08-07T04:09:15.046Z,1.57
2022-08-07T04:12:21.231Z,1.57
2022-08-07T04:14:38.114Z,1.18
2022-08-07T04:17:20.008Z,1.35
2022-08-07T04:19:52.745Z,1.33
2022-08-07T04:22:31.844Z,1.24
2022-08-07T04:25:03.817Z,1.18
2022-08-07T04:27:44.350Z,1.06
2022-08-07T04:30:35.768Z,1.51
2022-08-07T04:33:08.685Z,2.10
2022-08-07T04:35:37.467Z,1.63
2022-08-07T04:38:13.835Z,1.83
2022-08-07T04:40:52.088Z,1.86
2022-08-07T04:44:11.264Z,1.56
2022-08-07T04:46:20.071Z,1.27
2022-08-07T04:49:07.547Z,1.23
2022-08-07T04:52:04.063Z,1.11
2022-08-07T04:54:50.625Z,1.38
2022-08-07T04:58:13.248Z,1.26
2022-08-07T05:00:24.304Z,6.26
2022-08-07T05:06:19.772Z,3.94
2022-08-07T05:09:00.535Z,2.86
2022-08-07T05:11:57.230Z,2.05
2022-08-07T05:14:55.215Z,1.45
2022-08-07T05:17:50.231Z,1.50
2022-08-07T05:20:09.792Z,1.81
2022-08-07T05:22:41.397Z,1.48
2022-08-07T05:25:11.785Z,1.43
2022-08-07T05:28:16.215Z,1.30
2022-08-07T05:30:52.251Z,1.06
2022-08-07T05:33:28.971Z,1.48
2022-08-07T05:35:59.544Z,1.24
2022-08-07T05:38:59.731Z,1.57
2022-08-07T05:41:22.983Z,1.23
2022-08-07T05:44:08.155Z,1.30
2022-08-07T05:46:42.871Z,1.34
2022-08-07T05:49:18.349Z,1.39
2022-08-07T05:51:47.151Z,1.31
2022-08-07T05:54:31.163Z,1.45
2022-08-07T05:57:10.386Z,1.39
2022-08-07T05:59:57.537Z,1.68
2022-08-07T06:02:30.579Z,1.63
2022-08-07T06:05:15.854Z,1.36
2022-08-07T06:08:29.884Z,1.22
2022-08-07T06:10:36.506Z,1.17
2022-08-07T06:13:13.401Z,1.57
2022-08-07T06:15:43.428Z,1.23
2022-08-07T06:18:14.651Z,1.99
2022-08-07T06:20:49.897Z,1.65
2022-08-07T06:24:36.712Z,1.48
2022-08-07T06:26:16.958Z,1.61
2022-08-07T06:28:56.078Z,1.79
2022-08-07T06:31:46.996Z,1.37
2022-08-07T06:34:19.613Z,1.24
2022-08-07T06:36:47.070Z,1.40
2022-08-07T06:40:16.543Z,1.26
2022-08-07T06:42:12.656Z,1.19
2022-08-07T06:44:42.735Z,1.18
2022-08-07T06:47:15.330Z,1.36
2022-08-07T06:49:52.152Z,1.37
2022-08-07T06:52:31.501Z,1.39
2022-08-07T06:55:31.567Z,1.53
2022-08-07T06:58:11.849Z,1.67
2022-08-07T07:00:42.182Z,1.64
2022-08-07T07:03:17.139Z,1.69
2022-08-07T07:06:03.981Z,1.48
2022-08-07T07:08:34.528Z,1.61
2022-08-07T07:11:13.158Z,1.78
2022-08-07T07:14:02.524Z,1.59
2022-08-07T07:16:49.913Z,1.14
2022-08-07T07:19:55.895Z,0.84
2022-08-07T07:22:34.147Z,0.59
2022-08-07T07:25:02.724Z,3.94
2022-08-07T07:27:56.322Z,2.33
2022-08-07T07:30:41.068Z,2.04
2022-08-07T07:33:12.281Z,1.37
2022-08-07T07:36:04.849Z,1.03
2022-08-07T07:38:34.995Z,0.73
2022-08-07T07:41:08.723Z,0.59
2022-08-07T07:44:13.600Z,0.55
2022-08-07T07:46:40.517Z,0.49
2022-08-07T07:50:33.579Z,0.63
2022-08-07T07:52:12.588Z,0.89
2022-08-07T07:54:44.320Z,0.90
2022-08-07T07:57:51.795Z,0.91
2022-08-07T08:00:29.630Z,1.09
2022-08-07T08:03:08.288Z,1.05
2022-08-07T08:05:50.920Z,0.88
2022-08-07T08:08:34.983Z,0.78
2022-08-07T08:11:13.510Z,0.75
2022-08-07T08:13:54.614Z,0.89
2022-08-07T08:16:35.536Z,1.19
2022-08-07T08:19:09.749Z,0.91
2022-08-07T08:22:03.667Z,1.19
2022-08-07T08:24:45.531Z,1.13
2022-08-07T08:27:19.530Z,1.01
2022-08-07T08:29:55.933Z,0.88
2022-08-07T08:32:38.446Z,1.14
2022-08-07T08:35:13.868Z,1.21
2022-08-07T08:38:01.766Z,1.04
2022-08-07T08:40:39.215Z,0.82
2022-08-07T08:43:15.932Z,0.85
2022-08-07T08:46:02.027Z,0.88
2022-08-07T08:48:38.417Z,1.12
2022-08-07T08:51:26.316Z,1.11
2022-08-07T08:56:54.085Z,1.74
2022-08-07T08:59:41.769Z,2.46
2022-08-07T09:02:18.628Z,1.83
2022-08-07T09:05:36.961Z,2.00
2022-08-07T09:08:24.238Z,1.72
2022-08-07T09:11:08.356Z,1.29
2022-08-07T09:13:43.503Z,1.74
2022-08-07T09:16:29.917Z,1.30
2022-08-07T09:19:52.128Z,1.23
2022-08-07T09:24:28.267Z,1.57
2022-08-07T09:25:17.963Z,1.65
2022-08-07T09:28:00.133Z,2.03
2022-08-07T09:30:42.391Z,2.59
2022-08-07T09:33:56.896Z,2.44
2022-08-07T09:36:35.649Z,2.13
2022-08-07T09:39:52.956Z,9.77
2022-08-07T09:42:32.953Z,6.24
2022-08-07T09:47:24.104Z,4.51
2022-08-07T09:48:14.555Z,3.33
2022-08-07T09:50:56.056Z,2.56
2022-08-07T09:53:40.779Z,2.48
2022-08-07T09:56:47.602Z,2.27
2022-08-07T10:00:00.880Z,2.09
2022-08-07T10:04:05.330Z,1.82
2022-08-07T10:06:24.453Z,2.11
2022-08-07T10:10:02.471Z,2.88
2022-08-07T10:12:52.889Z,2.48
2022-08-07T10:15:50.116Z,2.39
2022-08-07T10:19:11.383Z,2.24
2022-08-07T10:22:15.741Z,2.10
2022-08-07T10:25:22.997Z,2.34
2022-08-07T10:28:17.687Z,2.48
2022-08-07T10:31:06.035Z,2.38
2022-08-07T10:34:05.689Z,2.30
2022-08-07T10:36:48.393Z,1.98
2022-08-07T10:39:41.319Z,1.94
2022-08-07T10:42:31.217Z,1.87
2022-08-07T10:45:15.272Z,1.71
2022-08-07T10:47:59.882Z,2.19
2022-08-07T10:50:34.553Z,1.75
2022-08-07T10:53:11.470Z,1.36
2022-08-07T10:55:53.512Z,1.28
2022-08-07T10:58:42.932Z,1.31
2022-08-07T11:01:25.555Z,1.26
2022-08-07T11:04:32.206Z,1.28
2022-08-07T11:07:15.193Z,1.27
2022-08-07T11:10:20.377Z,1.93
2022-08-07T11:13:02.059Z,2.17
2022-08-07T11:15:34.466Z,2.18
2022-08-07T11:18:14.765Z,1.93
2022-08-07T11:20:51.778Z,1.73
2022-08-07T11:23:36.357Z,1.96
2022-08-07T11:26:15.632Z,1.90
2022-08-07T11:28:55.326Z,1.85
2022-08-07T11:34:20.848Z,1.73
2022-08-07T11:37:17.831Z,1.95
2022-08-07T11:40:24.603Z,1.96
2022-08-07T11:43:15.595Z,1.98
2022-08-07T11:45:58.663Z,2.14
2022-08-07T11:49:50.716Z,1.82
2022-08-07T11:52:02.468Z,1.91
2022-08-07T11:54:56.614Z,1.99
2022-08-07T11:58:00.614Z,1.72
2022-08-07T12:00:31.575Z,1.62
2022-08-07T12:03:44.763Z,1.23
2022-08-07T12:06:37.554Z,1.82
2022-08-07T12:09:23.569Z,1.97
2022-08-07T12:12:09.577Z,1.60
2022-08-07T12:14:52.707Z,2.03
2022-08-07T12:17:34.531Z,1.41
2022-08-07T12:20:29.752Z,1.45
2022-08-07T12:24:05.241Z,1.42
2022-08-07T12:26:47.042Z,1.36
2022-08-07T12:29:38.609Z,1.05
2022-08-07T12:32:16.065Z,1.16
2022-08-07T12:34:55.650Z,1.07
2022-08-07T12:37:27.992Z,2.43
2022-08-07T12:40:44.886Z,1.78
2022-08-07T12:43:09.810Z,1.43
2022-08-07T12:45:52.413Z,1.46
2022-08-07T12:48:41.369Z,1.28
2022-08-07T12:51:21.183Z,1.36
2022-08-07T12:54:03.383Z,1.69
2022-08-07T12:56:50.882Z,1.28
2022-08-07T12:59:24.362Z,1.83
2022-08-07T13:02:33.349Z,1.91
2022-08-07T13:06:03.970Z,1.52
2022-08-07T13:08:23.943Z,1.49
2022-08-07T13:11:07.522Z,1.15
2022-08-07T13:13:53.824Z,1.07
2022-08-07T13:16:36.680Z,1.27
2022-08-07T13:19:34.876Z,1.02
2022-08-07T13:22:19.795Z,0.97
2022-08-07T13:25:01.034Z,0.91
2022-08-07T13:28:11.029Z,0.90
2022-08-07T13:30:40.066Z,0.81
2022-08-07T13:34:29.807Z,0.96
2022-08-07T13:36:17.351Z,0.79
2022-08-07T13:38:55.790Z,0.65
2022-08-07T13:41:34.727Z,0.84
2022-08-07T13:44:05.130Z,0.73
2022-08-07T13:46:49.266Z,0.66
2022-08-07T13:50:32.542Z,0.84
2022-08-07T13:52:31.500Z,0.73
2022-08-07T13:55:06.656Z,1.48
2022-08-07T13:57:59.101Z,1.55
2022-08-07T14:03:29.360Z,1.16
2022-08-07T14:06:10.585Z,1.03
2022-08-07T14:08:45.991Z,1.21
2022-08-07T14:11:25.091Z,1.07
2022-08-07T14:14:06.907Z,1.17
2022-08-07T14:16:40.201Z,1.00
2022-08-07T14:19:17.758Z,1.23
2022-08-07T14:22:12.437Z,1.05
2022-08-07T14:24:45.587Z,0.87
2022-08-07T14:28:11.843Z,0.81
2022-08-07T14:30:15.913Z,0.97
2022-08-07T14:33:01.666Z,0.90
2022-08-07T14:35:44.882Z,1.06
2022-08-07T14:38:30.919Z,1.28
2022-08-07T14:41:02.121Z,1.21
2022-08-07T14:43:59.293Z,1.08
2022-08-07T14:46:33.188Z,0.92
2022-08-07T14:49:55.834Z,2.03
2022-08-07T14:52:03.342Z,2.31
2022-08-07T14:54:41.702Z,1.99
2022-08-07T14:57:18.982Z,1.45
2022-08-07T15:00:04.649Z,1.05
2022-08-07T15:02:36.909Z,0.79
2022-08-07T15:05:20.140Z,0.73
2022-08-07T15:07:55.848Z,0.83
2022-08-07T15:10:32.453Z,1.01
2022-08-07T15:13:11.927Z,0.95
2022-08-07T15:15:52.422Z,0.98
2022-08-07T15:21:59.587Z,0.83
2022-08-07T15:25:16.104Z,0.70
2022-08-07T15:30:16.238Z,1.37
2022-08-07T15:32:50.788Z,1.05
2022-08-07T15:44:12.342Z,0.70
2022-08-07T15:46:51.642Z,0.65
2022-08-07T15:52:30.647Z,1.00
2022-08-07T15:55:03.561Z,1.01
2022-08-07T15:57:48.072Z,0.80
2022-08-07T16:00:31.100Z,1.26
2022-08-07T16:03:21.706Z,1.06
2022-08-07T16:05:58.834Z,1.24
2022-08-07T16:08:38.646Z,1.19
2022-08-07T16:11:29.134Z,1.30
2022-08-07T16:14:09.662Z,1.02
2022-08-07T16:17:15.911Z,1.00
2022-08-07T16:20:00.940Z,0.97
2022-08-07T16:23:12.287Z,1.04
2022-08-07T16:26:30.811Z,1.89
2022-08-07T16:30:09.137Z,1.53
2022-08-07T16:32:04.343Z,1.39
2022-08-07T16:34:48.120Z,1.13
2022-08-07T16:38:03.535Z,1.14
2022-08-07T16:41:01.861Z,0.95
2022-08-07T16:44:03.860Z,1.08
2022-08-07T16:47:04.466Z,1.44
2022-08-07T16:50:28.932Z,1.26
2022-08-07T16:53:55.555Z,1.44
2022-08-07T16:56:17.922Z,1.71
2022-08-07T16:59:10.937Z,1.24
2022-08-07T17:01:56.173Z,1.39
2022-08-07T17:04:35.416Z,1.25
2022-08-07T17:07:13.546Z,1.17
2022-08-07T17:10:06.503Z,1.32
2022-08-07T17:12:46.417Z,1.28
2022-08-07T17:15:44.755Z,1.34
2022-08-07T17:18:19.722Z,1.35
2022-08-07T17:20:48.761Z,1.23
2022-08-07T17:23:43.085Z,1.28
2022-08-07T17:26:24.093Z,0.99
2022-08-07T17:29:07.436Z,1.05
2022-08-07T17:32:03.177Z,1.13
2022-08-07T17:34:40.950Z,1.29
2022-08-07T17:38:05.522Z,1.19
2022-08-07T17:40:30.237Z,1.73
2022-08-07T17:43:03.802Z,1.44
2022-08-07T17:45:54.368Z,1.84
2022-08-07T17:48:31.147Z,2.22
2022-08-07T17:51:13.468Z,1.68
2022-08-07T17:54:01.202Z,1.28
2022-08-07T17:56:35.373Z,1.49
2022-08-07T17:59:16.845Z,1.68
2022-08-07T18:01:50.404Z,1.54
2022-08-07T18:04:35.031Z,2.32
2022-08-07T18:07:22.682Z,1.93
2022-08-07T18:13:10.671Z,1.66
2022-08-07T18:16:02.726Z,1.87
2022-08-07T18:21:04.598Z,2.63
2022-08-07T18:21:51.832Z,1.99
2022-08-07T18:24:33.625Z,1.66
2022-08-07T18:27:17.321Z,1.88
2022-08-07T18:30:32.796Z,1.66
2022-08-07T18:33:37.649Z,1.69
2022-08-07T18:36:16.975Z,1.55
2022-08-07T18:40:08.360Z,1.35
2022-08-07T18:42:19.790Z,1.51
2022-08-07T18:45:43.179Z,1.35
2022-08-07T18:48:00.986Z,1.59
2022-08-07T18:50:53.254Z,1.63
2022-08-07T18:53:36.934Z,1.82
2022-08-07T18:56:18.574Z,1.62
2022-08-07T18:58:54.627Z,1.63
2022-08-07T19:02:18.343Z,1.88
2022-08-07T19:04:37.416Z,2.04
2022-08-07T19:07:34.586Z,1.75
2022-08-07T19:12:59.419Z,2.38
2022-08-07T19:16:04.559Z,1.89
2022-08-07T19:18:44.898Z,1.65
2022-08-07T19:21:44.287Z,1.43
2022-08-07T19:24:31.043Z,3.00
2022-08-07T19:28:58.402Z,2.85
2022-08-07T19:31:04.783Z,2.31
2022-08-07T19:32:59.199Z,2.11
2022-08-07T19:35:27.841Z,1.54
2022-08-07T19:38:05.736Z,1.75
2022-08-07T19:40:50.331Z,2.23
2022-08-07T19:43:50.356Z,2.16
2022-08-07T19:46:12.948Z,2.17
2022-08-07T19:48:53.738Z,1.95
2022-08-07T19:51:50.839Z,2.48
2022-08-07T19:54:35.149Z,3.16
2022-08-07T19:57:52.293Z,2.40
2022-08-07T19:59:55.431Z,2.17
2022-08-07T20:02:41.344Z,1.92
2022-08-07T20:05:24.215Z,1.70
2022-08-07T20:07:59.424Z,2.12
2022-08-07T20:10:35.275Z,2.14
2022-08-07T20:13:26.736Z,1.72
2022-08-07T20:15:57.839Z,1.59
2022-08-07T20:18:32.944Z,1.51
2022-08-07T20:21:20.992Z,1.25
2022-08-07T20:23:58.031Z,1.29
2022-08-07T20:26:38.605Z,1.17
2022-08-07T20:29:17.109Z,1.70
2022-08-07T20:32:02.538Z,1.79
2022-08-07T20:34:49.971Z,2.34
2022-08-07T20:37:23.260Z,1.81
2022-08-07T20:40:04.275Z,1.50
2022-08-07T20:42:33.664Z,1.29
2022-08-07T20:45:33.185Z,1.51
2022-08-07T20:47:58.482Z,1.55
2022-08-07T20:50:28.311Z,1.62
2022-08-07T20:52:57.760Z,1.60
2022-08-07T20:55:26.479Z,3.58
2022-08-07T20:58:03.466Z,2.55
2022-08-07T21:00:42.498Z,1.97
2022-08-07T21:03:13.999Z,2.42
2022-08-07T21:05:54.350Z,1.79
2022-08-07T21:08:32.385Z,1.79
2022-08-07T21:11:14.122Z,1.42
2022-08-07T21:14:16.793Z,3.10
2022-08-07T21:19:32.378Z,2.12
2022-08-07T21:22:19.522Z,1.56
2022-08-07T21:25:12.799Z,1.66
2022-08-07T21:28:16.680Z,1.63
2022-08-07T21:33:29.309Z,1.51
2022-08-07T21:36:31.068Z,2.05
2022-08-07T21:39:46.393Z,1.64
2022-08-07T21:42:37.796Z,1.59
2022-08-07T21:45:24.362Z,1.89
2022-08-07T21:48:28.917Z,1.81
2022-08-07T21:51:02.554Z,1.76
2022-08-07T21:53:36.971Z,2.20
2022-08-07T21:56:35.768Z,1.87
2022-08-07T21:59:11.536Z,1.55
2022-08-07T22:02:10.178Z,1.31
2022-08-07T22:04:39.533Z,1.28
2022-08-07T22:07:23.034Z,1.92
2022-08-07T22:10:06.478Z,2.24
2022-08-07T22:12:49.634Z,1.81
2022-08-07T22:16:39.208Z,1.55
2022-08-07T22:18:15.420Z,1.38
2022-08-07T22:20:49.077Z,1.77
2022-08-07T22:23:21.553Z,1.92
2022-08-07T22:26:18.894Z,1.56
2022-08-07T22:29:00.570Z,1.69
2022-08-07T22:31:56.198Z,2.57
2022-08-07T22:34:41.606Z,2.54
2022-08-07T22:38:02.880Z,1.98
2022-08-07T22:40:39.878Z,2.07
2022-08-07T22:43:10.960Z,2.48
2022-08-07T22:46:40.418Z,2.91
2022-08-07T22:49:10.958Z,2.89
2022-08-07T22:51:52.164Z,2.78
2022-08-07T22:54:39.676Z,2.94
2022-08-07T22:57:37.387Z,2.86
2022-08-07T23:00:17.426Z,2.44
2022-08-07T23:03:03.553Z,1.93
2022-08-07T23:06:07.096Z,2.23
2022-08-07T23:08:55.770Z,1.71
2022-08-07T23:11:45.861Z,1.45
2022-08-07T23:14:47.537Z,1.78
2022-08-07T23:17:47.001Z,3.75
2022-08-07T23:20:51.892Z,2.99
2022-08-07T23:24:06.492Z,2.61
2022-08-07T23:26:26.987Z,2.45
2022-08-07T23:29:43.800Z,3.37
2022-08-07T23:34:22.101Z,2.70
2022-08-07T23:35:16.569Z,2.66
2022-08-07T23:38:11.629Z,2.57
2022-08-07T23:40:52.511Z,2.92
2022-08-07T23:43:47.473Z,3.13
2022-08-07T23:47:01.313Z,2.52
2022-08-07T23:49:52.850Z,2.27
2022-08-07T23:53:05.193Z,2.81
2022-08-07T23:55:51.843Z,2.73
2022-08-07T23:58:24.667Z,2.55
